createdAt,value
2022-08-10T00:02:05.067Z,1.10
2022-08-10T00:05:09.264Z,0.70
2022-08-10T00:08:22.535Z,0.90
2022-08-10T00:11:31.277Z,1.00
2022-08-10T00:14:35.036Z,1.30
2022-08-10T00:17:39.214Z,0.90
2022-08-10T00:20:42.997Z,1.00
2022-08-10T00:23:47.590Z,1.42
2022-08-10T00:27:52.570Z,1.50
2022-08-10T00:30:16.788Z,2.00
2022-08-10T00:33:21.837Z,1.85
2022-08-10T00:36:25.747Z,1.60
2022-08-10T00:39:36.098Z,1.30
2022-08-10T00:42:42.198Z,2.15
2022-08-10T00:45:45.552Z,1.60
2022-08-10T00:49:04.318Z,1.65
2022-08-10T00:52:08.961Z,1.67
2022-08-10T00:55:13.769Z,1.48
2022-08-10T00:58:18.076Z,2.20
2022-08-10T01:02:09.665Z,2.50
2022-08-10T01:05:00.030Z,2.85
2022-08-10T01:08:48.154Z,2.75
2022-08-10T01:12:38.632Z,2.95
2022-08-10T01:16:02.426Z,3.25
2022-08-10T01:19:39.181Z,3.58
2022-08-10T01:23:22.091Z,2.63
2022-08-10T01:26:32.207Z,2.28
2022-08-10T01:29:42.456Z,2.05
2022-08-10T01:33:09.210Z,1.50
2022-08-10T01:36:16.028Z,1.52
2022-08-10T01:42:38.323Z,1.70
2022-08-10T01:45:46.325Z,1.70
2022-08-10T01:48:55.509Z,1.73
2022-08-10T01:52:00.920Z,1.88
2022-08-10T01:55:06.620Z,2.13
2022-08-10T01:58:12.346Z,1.92
2022-08-10T02:01:23.321Z,3.67
2022-08-10T02:04:29.547Z,2.67
2022-08-10T02:07:39.452Z,1.98
2022-08-10T02:10:46.510Z,1.23
2022-08-10T02:18:00.968Z,1.40
2022-08-10T02:20:50.342Z,1.50
2022-08-10T02:23:59.528Z,1.30
2022-08-10T02:27:10.674Z,1.65
2022-08-10T02:30:16.775Z,1.85
2022-08-10T02:36:53.499Z,1.63
2022-08-10T02:39:59.842Z,1.30
2022-08-10T02:46:59.981Z,1.02
2022-08-10T02:50:33.537Z,1.20
2022-08-10T02:53:56.922Z,1.02
2022-08-10T02:57:12.237Z,1.00
2022-08-10T03:00:20.547Z,0.90
2022-08-10T03:03:33.241Z,0.95
2022-08-10T03:06:48.393Z,0.75
2022-08-10T03:09:59.350Z,0.80
2022-08-10T03:13:26.509Z,0.60
2022-08-10T03:16:34.261Z,0.65
2022-08-10T03:20:34.132Z,0.75
2022-08-10T03:23:26.447Z,0.80
2022-08-10T03:26:38.924Z,0.90
2022-08-10T03:30:28.668Z,0.52
2022-08-10T03:33:19.432Z,0.80
2022-08-10T03:36:43.026Z,0.65
2022-08-10T03:39:57.837Z,0.75
2022-08-10T03:43:13.528Z,0.65
2022-08-10T03:46:25.264Z,0.70
2022-08-10T03:49:37.590Z,0.47
2022-08-10T03:52:55.166Z,0.60
2022-08-10T03:56:29.549Z,0.70
2022-08-10T03:59:39.606Z,0.60
2022-08-10T04:02:48.473Z,0.70
2022-08-10T04:06:04.052Z,0.30
2022-08-10T04:09:12.593Z,0.70
2022-08-10T04:12:21.134Z,0.63
2022-08-10T04:15:27.219Z,0.77
2022-08-10T04:18:40.962Z,0.60
2022-08-10T04:22:03.846Z,0.40
2022-08-10T04:25:27.827Z,0.43
2022-08-10T04:28:42.180Z,0.40
2022-08-10T04:32:09.352Z,0.60
2022-08-10T04:35:42.120Z,0.30
2022-08-10T04:38:54.848Z,0.50
2022-08-10T04:42:06.243Z,0.40
2022-08-10T04:45:50.193Z,0.50
2022-08-10T04:49:01.979Z,0.60
2022-08-10T04:52:38.967Z,0.47
2022-08-10T04:55:47.498Z,0.30
2022-08-10T04:59:04.421Z,0.20
2022-08-10T05:02:30.358Z,0.20
2022-08-10T05:05:43.456Z,0.20
2022-08-10T05:08:55.988Z,0.40
2022-08-10T05:12:06.550Z,0.40
2022-08-10T05:15:19.460Z,0.20
2022-08-10T05:18:28.195Z,0.25
2022-08-10T05:22:03.295Z,0.30
2022-08-10T05:25:13.001Z,0.20
2022-08-10T05:28:19.755Z,0.20
2022-08-10T05:31:35.757Z,0.30
2022-08-10T05:34:42.943Z,0.40
2022-08-10T05:38:11.947Z,0.40
2022-08-10T05:41:27.255Z,0.50
2022-08-10T05:44:45.132Z,0.30
2022-08-10T05:48:54.047Z,0.17
2022-08-10T05:51:16.837Z,0.17
2022-08-10T05:54:27.414Z,0.40
2022-08-10T05:57:33.885Z,0.20
2022-08-10T06:00:49.924Z,0.30
2022-08-10T06:04:00.348Z,0.30
2022-08-10T06:07:08.345Z,0.30
2022-08-10T06:10:28.571Z,0.20
2022-08-10T06:14:00.018Z,0.40
2022-08-10T06:17:20.307Z,0.30
2022-08-10T06:20:27.575Z,0.40
2022-08-10T06:23:38.772Z,0.35
2022-08-10T06:26:45.241Z,0.30
2022-08-10T06:33:01.773Z,0.52
2022-08-10T06:36:10.096Z,0.60
2022-08-10T06:39:33.140Z,0.50
2022-08-10T06:42:49.341Z,0.20
2022-08-10T06:46:08.516Z,0.20
2022-08-10T06:49:16.313Z,0.63
2022-08-10T06:52:25.162Z,0.38
2022-08-10T06:55:40.186Z,0.47
2022-08-10T06:59:02.662Z,0.40
2022-08-10T07:02:14.249Z,3.30
2022-08-10T07:05:24.928Z,0.73
2022-08-10T07:08:35.607Z,0.40
2022-08-10T07:11:42.987Z,0.50
2022-08-10T07:14:50.385Z,0.50
2022-08-10T07:17:59.629Z,0.20
2022-08-10T07:21:06.811Z,0.40
2022-08-10T07:24:19.024Z,0.40
2022-08-10T07:27:27.635Z,0.30
2022-08-10T07:30:47.430Z,0.28
2022-08-10T07:34:00.670Z,0.30
2022-08-10T07:37:09.998Z,0.30
2022-08-10T07:40:17.378Z,0.30
2022-08-10T07:43:27.024Z,0.30
2022-08-10T07:46:36.065Z,0.40
2022-08-10T07:49:44.578Z,0.40
2022-08-10T07:52:54.739Z,0.50
2022-08-10T07:56:16.577Z,0.60
2022-08-10T07:59:47.520Z,0.35
2022-08-10T08:03:02.487Z,0.60
2022-08-10T08:06:11.900Z,0.43
2022-08-10T08:09:22.210Z,0.63
2022-08-10T08:12:32.405Z,0.70
2022-08-10T08:16:17.188Z,0.73
2022-08-10T08:19:27.921Z,0.73
2022-08-10T08:24:10.888Z,0.50
2022-08-10T08:26:05.088Z,0.43
2022-08-10T08:29:15.464Z,0.30
2022-08-10T08:32:28.181Z,0.40
2022-08-10T08:35:36.716Z,0.50
2022-08-10T08:38:45.235Z,0.50
2022-08-10T08:41:59.278Z,0.82
2022-08-10T08:45:51.042Z,0.93
2022-08-10T08:50:04.722Z,0.80
2022-08-10T08:53:23.724Z,0.82
2022-08-10T08:57:06.949Z,0.80
2022-08-10T09:00:25.199Z,1.05
2022-08-10T09:03:57.988Z,2.40
2022-08-10T09:07:39.375Z,0.90
2022-08-10T09:11:02.144Z,1.20
2022-08-10T09:14:29.080Z,1.50
2022-08-10T09:17:51.631Z,1.10
2022-08-10T09:21:14.688Z,1.00
2022-08-10T09:24:34.581Z,1.20
2022-08-10T09:27:50.075Z,2.08
2022-08-10T09:31:22.066Z,1.98
2022-08-10T09:36:20.906Z,1.90
2022-08-10T09:38:38.671Z,2.25
2022-08-10T09:42:15.091Z,1.95
2022-08-10T09:45:38.618Z,2.50
2022-08-10T09:49:52.771Z,2.90
2022-08-10T09:53:06.828Z,2.38
2022-08-10T09:56:32.555Z,2.00
2022-08-10T10:00:00.153Z,2.15
2022-08-10T10:03:41.488Z,1.77
2022-08-10T10:07:00.265Z,2.50
2022-08-10T10:10:17.391Z,3.63
2022-08-10T10:14:02.505Z,1.67
2022-08-10T10:17:23.374Z,0.90
2022-08-10T10:20:51.243Z,0.43
2022-08-10T10:24:22.367Z,0.80
2022-08-10T10:27:39.312Z,0.80
2022-08-10T10:31:25.216Z,0.95
2022-08-10T10:34:44.180Z,0.45
2022-08-10T10:38:01.275Z,0.85
2022-08-10T10:42:03.462Z,1.30
2022-08-10T10:45:19.170Z,0.55
2022-08-10T10:48:29.071Z,0.30
2022-08-10T10:51:54.140Z,1.33
2022-08-10T10:55:23.848Z,1.15
2022-08-10T10:59:02.665Z,0.90
2022-08-10T11:02:43.032Z,0.77
2022-08-10T11:06:09.749Z,0.95
2022-08-10T11:10:04.505Z,1.40
2022-08-10T11:14:25.362Z,1.88
2022-08-10T11:17:08.619Z,1.15
2022-08-10T11:20:26.462Z,0.88
2022-08-10T11:24:49.103Z,1.58
2022-08-10T11:27:50.571Z,2.33
2022-08-10T11:31:17.632Z,3.47
2022-08-10T11:35:11.128Z,5.72
2022-08-10T11:42:09.402Z,5.43
2022-08-10T11:45:22.235Z,4.68
2022-08-10T11:48:53.492Z,5.40
2022-08-10T11:52:12.240Z,8.48
2022-08-10T11:55:24.873Z,6.32
2022-08-10T11:58:55.611Z,7.10
2022-08-10T12:02:01.933Z,4.22
2022-08-10T12:05:10.826Z,3.30
2022-08-10T12:10:06.566Z,3.53
2022-08-10T12:11:50.059Z,3.28
2022-08-10T12:15:16.381Z,3.00
2022-08-10T12:18:31.684Z,3.08
2022-08-10T12:22:07.239Z,2.38
2022-08-10T12:25:56.489Z,2.75
2022-08-10T12:29:43.731Z,4.45
2022-08-10T12:33:27.900Z,3.05
2022-08-10T12:36:44.583Z,2.80
2022-08-10T12:40:34.018Z,2.50
2022-08-10T12:44:06.250Z,2.55
2022-08-10T12:47:19.185Z,2.30
2022-08-10T12:50:59.141Z,2.08
2022-08-10T12:54:11.949Z,2.25
2022-08-10T12:57:19.955Z,1.38
2022-08-10T13:00:44.846Z,1.45
2022-08-10T13:04:22.573Z,3.72
2022-08-10T13:08:24.933Z,3.35
2022-08-10T13:11:18.489Z,4.40
2022-08-10T13:14:42.534Z,4.10
2022-08-10T13:17:53.194Z,3.10
2022-08-10T13:21:20.859Z,2.38
2022-08-10T13:24:29.916Z,1.77
2022-08-10T13:28:02.492Z,1.83
2022-08-10T13:31:16.802Z,1.70
2022-08-10T14:04:22.846Z,3.08
2022-08-10T14:11:31.897Z,3.40
2022-08-10T14:21:17.321Z,2.50
2022-08-10T14:28:03.180Z,5.90
2022-08-10T14:31:10.845Z,10.02
2022-08-10T15:25:57.630Z,4.18
2022-08-10T15:29:24.278Z,4.15
2022-08-10T15:32:58.871Z,4.40
2022-08-10T15:36:23.693Z,4.80
2022-08-10T15:40:22.368Z,5.50
2022-08-10T15:43:20.278Z,4.45
2022-08-10T15:46:45.771Z,3.50
2022-08-10T15:50:01.774Z,2.45
2022-08-10T15:53:49.138Z,2.45
2022-08-10T15:56:59.857Z,2.53
2022-08-10T16:00:08.694Z,2.45
2022-08-10T16:03:37.683Z,2.42
2022-08-10T16:06:47.893Z,2.25
2022-08-10T16:10:22.650Z,2.70
2022-08-10T16:13:50.474Z,2.08
2022-08-10T16:16:54.499Z,2.15
2022-08-10T16:20:00.269Z,2.00
2022-08-10T16:23:10.420Z,1.67
2022-08-10T16:26:17.705Z,2.63
2022-08-10T16:32:30.986Z,2.17
2022-08-10T16:35:35.900Z,2.13
2022-08-10T16:38:42.443Z,2.20
2022-08-10T16:42:05.117Z,2.78
2022-08-10T16:45:38.263Z,3.28
2022-08-10T16:48:49.861Z,2.75
2022-08-10T16:51:56.097Z,1.70
2022-08-10T16:55:16.945Z,1.73
2022-08-10T16:58:34.505Z,2.13
2022-08-10T17:01:40.265Z,2.08
2022-08-10T17:04:46.107Z,2.10
2022-08-10T17:07:51.637Z,1.73
2022-08-10T17:10:57.486Z,2.00
2022-08-10T17:14:02.843Z,2.03
2022-08-10T17:17:09.922Z,2.15
2022-08-10T17:20:32.066Z,2.40
2022-08-10T17:23:40.566Z,3.10
2022-08-10T17:26:45.117Z,1.70
2022-08-10T17:30:03.796Z,1.95
2022-08-10T17:33:16.288Z,1.73
2022-08-10T17:36:21.024Z,1.55
2022-08-10T17:39:32.184Z,1.58
2022-08-10T17:42:37.230Z,2.90
2022-08-10T17:45:46.366Z,1.73
2022-08-10T17:48:53.847Z,1.58
2022-08-10T17:51:59.093Z,1.75
2022-08-10T17:55:07.382Z,2.30
2022-08-10T17:58:20.676Z,1.80
2022-08-10T18:01:40.738Z,1.75
2022-08-10T18:04:58.124Z,1.55
2022-08-10T18:08:11.820Z,1.63
2022-08-10T18:11:18.078Z,2.00
2022-08-10T18:14:23.297Z,1.63
2022-08-10T18:17:38.481Z,1.90
2022-08-10T18:20:44.264Z,3.60
2022-08-10T18:23:52.697Z,3.80
2022-08-10T18:27:01.930Z,2.08
2022-08-10T18:30:08.847Z,3.05
2022-08-10T18:33:14.909Z,2.50
2022-08-10T18:36:19.880Z,2.17
2022-08-10T18:39:32.310Z,2.42
2022-08-10T18:42:42.644Z,2.40
2022-08-10T18:45:47.007Z,3.10
2022-08-10T18:48:57.932Z,1.85
2022-08-10T18:52:08.269Z,1.85
2022-08-10T18:55:23.254Z,2.55
2022-08-10T18:58:45.381Z,2.20
2022-08-10T19:02:22.427Z,2.88
2022-08-10T19:05:51.278Z,2.75
2022-08-10T19:09:47.703Z,1.90
2022-08-10T19:12:52.714Z,1.80
2022-08-10T19:16:12.914Z,2.28
2022-08-10T19:19:43.472Z,2.00
2022-08-10T19:22:54.925Z,2.03
2022-08-10T19:26:32.891Z,2.08
2022-08-10T19:30:11.236Z,1.80
2022-08-10T19:33:33.094Z,1.90
2022-08-10T19:36:55.606Z,2.13
2022-08-10T19:40:44.307Z,2.00
2022-08-10T19:44:18.801Z,2.53
2022-08-10T19:47:58.797Z,2.47
2022-08-10T19:51:13.926Z,4.00
2022-08-10T19:54:27.724Z,3.03
2022-08-10T19:57:59.479Z,4.22
2022-08-10T20:01:08.607Z,2.72
2022-08-10T20:04:29.542Z,2.63
2022-08-10T20:07:58.825Z,2.88
2022-08-10T20:11:44.016Z,3.63
2022-08-10T20:15:05.622Z,3.47
2022-08-10T20:18:15.077Z,3.67
2022-08-10T20:21:29.021Z,2.95
2022-08-10T20:24:54.458Z,5.65
2022-08-10T20:28:20.995Z,2.42
2022-08-10T20:34:43.429Z,2.25
2022-08-10T20:38:04.436Z,2.28
2022-08-10T20:41:46.309Z,2.53
2022-08-10T20:45:12.471Z,2.10
2022-08-10T20:48:39.202Z,4.35
2022-08-10T20:52:05.134Z,2.63
2022-08-10T20:55:10.989Z,3.50
2022-08-10T20:58:33.144Z,2.45
2022-08-10T21:02:11.777Z,3.28
2022-08-10T21:05:42.608Z,3.70
2022-08-10T21:09:03.889Z,2.97
2022-08-10T21:12:58.109Z,2.50
2022-08-10T21:16:05.089Z,2.33
2022-08-10T21:19:55.642Z,2.53
2022-08-10T21:26:53.287Z,2.65
2022-08-10T21:30:17.498Z,2.13
2022-08-10T21:34:04.716Z,2.22
2022-08-10T21:37:23.968Z,2.20
2022-08-10T21:41:18.892Z,2.55
2022-08-10T21:44:40.509Z,2.55
2022-08-10T21:48:17.695Z,2.17
2022-08-10T21:52:06.759Z,2.63
2022-08-10T21:55:57.165Z,2.45
2022-08-10T21:59:17.382Z,3.00
2022-08-10T22:02:52.220Z,2.78
2022-08-10T22:06:16.367Z,3.13
2022-08-10T22:09:47.782Z,2.30
2022-08-10T22:13:13.558Z,2.80
2022-08-10T22:17:07.647Z,2.78
2022-08-10T22:20:54.482Z,3.42
2022-08-10T22:24:44.098Z,2.17
2022-08-10T22:28:17.659Z,2.90
2022-08-10T22:31:27.736Z,2.45
2022-08-10T22:32:03.136Z,2.20
2022-08-10T22:35:54.497Z,2.83
2022-08-10T22:40:12.675Z,2.28
2022-08-10T22:43:36.288Z,3.33
2022-08-10T22:47:01.649Z,2.80
2022-08-10T22:50:07.792Z,2.33
2022-08-10T22:53:20.800Z,2.60
2022-08-10T22:56:43.555Z,2.42
2022-08-10T22:59:48.883Z,2.80
2022-08-10T23:02:55.671Z,2.85
2022-08-10T23:06:06.788Z,2.92
2022-08-10T23:09:13.543Z,2.83
2022-08-10T23:15:58.588Z,2.40
2022-08-10T23:19:11.617Z,3.10
2022-08-10T23:22:18.593Z,2.20
2022-08-10T23:25:30.153Z,2.80
2022-08-10T23:28:58.137Z,2.70
2022-08-10T23:32:07.566Z,2.50
2022-08-10T23:36:31.366Z,2.80
2022-08-10T23:38:43.565Z,2.38
2022-08-10T23:42:07.557Z,2.63
2022-08-10T23:45:17.312Z,2.42
2022-08-10T23:48:25.745Z,2.90
2022-08-10T23:51:54.674Z,3.10
2022-08-10T23:55:08.744Z,2.92
2022-08-10T23:58:29.165Z,2.80
